sensor_id;sensor_type;location;lat;lon;timestamp;temperature;humidity
46720;DHT22;32452;51.382;-0.002;2023-05-02T00:01:33;13.70;76.30
46720;DHT22;32452;51.382;-0.002;2023-05-02T00:04:20;13.70;76.50
46720;DHT22;32452;51.382;-0.002;2023-05-02T00:07:09;13.70;76.80
46720;DHT22;32452;51.382;-0.002;2023-05-02T00:09:58;13.70;77.10
46720;DHT22;32452;51.382;-0.002;2023-05-02T00:12:48;13.70;77.20
46720;DHT22;32452;51.382;-0.002;2023-05-02T00:15:34;13.70;77.50
46720;DHT22;32452;51.382;-0.002;2023-05-02T00:18:19;13.70;77.80
46720;DHT22;32452;51.382;-0.002;2023-05-02T00:21:04;13.60;78.00
46720;DHT22;32452;51.382;-0.002;2023-05-02T00:23:51;13.60;78.30
46720;DHT22;32452;51.382;-0.002;2023-05-02T00:26:36;13.60;78.60
46720;DHT22;32452;51.382;-0.002;2023-05-02T00:29:22;13.60;78.80
46720;DHT22;32452;51.382;-0.002;2023-05-02T00:32:07;13.60;79.10
46720;DHT22;32452;51.382;-0.002;2023-05-02T00:34:53;13.60;79.40
46720;DHT22;32452;51.382;-0.002;2023-05-02T00:37:39;13.60;79.60
46720;DHT22;32452;51.382;-0.002;2023-05-02T00:40:24;13.60;79.90
46720;DHT22;32452;51.382;-0.002;2023-05-02T00:43:10;13.50;80.10
46720;DHT22;32452;51.382;-0.002;2023-05-02T00:45:56;13.40;80.30
46720;DHT22;32452;51.382;-0.002;2023-05-02T00:48:42;13.40;80.60
46720;DHT22;32452;51.382;-0.002;2023-05-02T00:51:31;13.30;81.60
46720;DHT22;32452;51.382;-0.002;2023-05-02T00:54:17;13.30;81.20
46720;DHT22;32452;51.382;-0.002;2023-05-02T00:57:03;13.20;81.50
46720;DHT22;32452;51.382;-0.002;2023-05-02T00:59:48;13.20;81.90
46720;DHT22;32452;51.382;-0.002;2023-05-02T01:02:49;13.10;82.20
46720;DHT22;32452;51.382;-0.002;2023-05-02T01:05:48;13.00;82.50
46720;DHT22;32452;51.382;-0.002;2023-05-02T01:09:19;13.00;82.90
46720;DHT22;32452;51.382;-0.002;2023-05-02T01:12:26;12.90;83.00
46720;DHT22;32452;51.382;-0.002;2023-05-02T01:15:18;12.90;83.30
46720;DHT22;32452;51.382;-0.002;2023-05-02T01:18:05;12.80;83.70
46720;DHT22;32452;51.382;-0.002;2023-05-02T01:20:59;12.80;84.00
46720;DHT22;32452;51.382;-0.002;2023-05-02T01:24:18;12.80;84.60
46720;DHT22;32452;51.382;-0.002;2023-05-02T01:27:23;12.80;85.00
46720;DHT22;32452;51.382;-0.002;2023-05-02T01:30:14;12.80;85.60
46720;DHT22;32452;51.382;-0.002;2023-05-02T01:33:02;12.80;86.30
46720;DHT22;32452;51.382;-0.002;2023-05-02T01:35:51;12.80;86.90
46720;DHT22;32452;51.382;-0.002;2023-05-02T01:38:39;12.90;87.50
46720;DHT22;32452;51.382;-0.002;2023-05-02T01:41:28;12.90;88.00
46720;DHT22;32452;51.382;-0.002;2023-05-02T01:44:15;12.90;88.70
46720;DHT22;32452;51.382;-0.002;2023-05-02T01:47:03;12.90;89.30
46720;DHT22;32452;51.382;-0.002;2023-05-02T01:49:50;12.90;90.00
46720;DHT22;32452;51.382;-0.002;2023-05-02T01:52:36;13.00;90.30
46720;DHT22;32452;51.382;-0.002;2023-05-02T01:55:23;13.00;90.60
46720;DHT22;32452;51.382;-0.002;2023-05-02T01:58:11;13.00;90.90
46720;DHT22;32452;51.382;-0.002;2023-05-02T02:00:59;13.10;91.30
46720;DHT22;32452;51.382;-0.002;2023-05-02T02:03:46;13.10;91.50
46720;DHT22;32452;51.382;-0.002;2023-05-02T02:06:32;13.20;91.70
46720;DHT22;32452;51.382;-0.002;2023-05-02T02:09:18;13.20;91.90
46720;DHT22;32452;51.382;-0.002;2023-05-02T02:15:18;13.20;92.30
46720;DHT22;32452;51.382;-0.002;2023-05-02T02:18:12;13.20;92.40
46720;DHT22;32452;51.382;-0.002;2023-05-02T02:20:59;13.20;92.60
46720;DHT22;32452;51.382;-0.002;2023-05-02T02:23:48;13.20;92.30
46720;DHT22;32452;51.382;-0.002;2023-05-02T02:26:35;13.20;92.50
46720;DHT22;32452;51.382;-0.002;2023-05-02T02:29:21;13.20;92.70
46720;DHT22;32452;51.382;-0.002;2023-05-02T02:32:07;13.20;93.00
46720;DHT22;32452;51.382;-0.002;2023-05-02T02:34:52;13.10;93.20
46720;DHT22;32452;51.382;-0.002;2023-05-02T02:37:51;13.10;93.50
46720;DHT22;32452;51.382;-0.002;2023-05-02T02:40:44;13.10;93.80
46720;DHT22;32452;51.382;-0.002;2023-05-02T02:43:39;13.10;94.00
46720;DHT22;32452;51.382;-0.002;2023-05-02T02:46:37;13.10;94.30
46720;DHT22;32452;51.382;-0.002;2023-05-02T02:53:03;13.10;94.50
46720;DHT22;32452;51.382;-0.002;2023-05-02T02:56:09;13.20;94.60
46720;DHT22;32452;51.382;-0.002;2023-05-02T02:59:01;13.20;94.70
46720;DHT22;32452;51.382;-0.002;2023-05-02T03:02:04;13.20;95.00
46720;DHT22;32452;51.382;-0.002;2023-05-02T03:04:52;13.10;95.10
46720;DHT22;32452;51.382;-0.002;2023-05-02T03:07:39;13.10;95.10
46720;DHT22;32452;51.382;-0.002;2023-05-02T03:10:24;13.10;95.30
46720;DHT22;32452;51.382;-0.002;2023-05-02T03:13:10;13.20;95.40
46720;DHT22;32452;51.382;-0.002;2023-05-02T03:18:44;13.10;95.70
46720;DHT22;32452;51.382;-0.002;2023-05-02T03:21:30;13.10;95.80
46720;DHT22;32452;51.382;-0.002;2023-05-02T03:24:16;13.20;95.90
46720;DHT22;32452;51.382;-0.002;2023-05-02T03:27:03;13.10;96.00
46720;DHT22;32452;51.382;-0.002;2023-05-02T03:29:49;13.10;96.10
46720;DHT22;32452;51.382;-0.002;2023-05-02T03:32:34;13.10;96.20
46720;DHT22;32452;51.382;-0.002;2023-05-02T03:35:20;13.10;96.40
46720;DHT22;32452;51.382;-0.002;2023-05-02T03:38:05;13.10;96.50
46720;DHT22;32452;51.382;-0.002;2023-05-02T03:40:51;13.10;96.60
46720;DHT22;32452;51.382;-0.002;2023-05-02T03:43:36;13.10;96.80
46720;DHT22;32452;51.382;-0.002;2023-05-02T03:46:22;13.10;96.90
46720;DHT22;32452;51.382;-0.002;2023-05-02T03:49:07;13.10;97.00
46720;DHT22;32452;51.382;-0.002;2023-05-02T03:51:54;13.10;97.20
46720;DHT22;32452;51.382;-0.002;2023-05-02T03:54:39;13.00;97.30
46720;DHT22;32452;51.382;-0.002;2023-05-02T03:57:29;13.00;97.40
46720;DHT22;32452;51.382;-0.002;2023-05-02T04:00:14;13.00;97.50
46720;DHT22;32452;51.382;-0.002;2023-05-02T04:03:00;13.00;97.60
46720;DHT22;32452;51.382;-0.002;2023-05-02T04:05:46;13.00;97.70
46720;DHT22;32452;51.382;-0.002;2023-05-02T04:08:32;13.00;97.90
46720;DHT22;32452;51.382;-0.002;2023-05-02T04:11:17;13.00;97.90
46720;DHT22;32452;51.382;-0.002;2023-05-02T04:14:03;13.00;97.90
46720;DHT22;32452;51.382;-0.002;2023-05-02T04:16:49;13.10;98.10
46720;DHT22;32452;51.382;-0.002;2023-05-02T04:19:35;13.10;98.20
46720;DHT22;32452;51.382;-0.002;2023-05-02T04:22:21;13.10;98.30
46720;DHT22;32452;51.382;-0.002;2023-05-02T04:25:07;13.10;98.40
46720;DHT22;32452;51.382;-0.002;2023-05-02T04:27:52;13.10;98.40
46720;DHT22;32452;51.382;-0.002;2023-05-02T04:30:38;13.10;98.40
46720;DHT22;32452;51.382;-0.002;2023-05-02T04:33:23;13.10;98.50
46720;DHT22;32452;51.382;-0.002;2023-05-02T04:36:08;13.10;98.50
46720;DHT22;32452;51.382;-0.002;2023-05-02T04:38:54;13.10;98.50
46720;DHT22;32452;51.382;-0.002;2023-05-02T04:41:40;13.10;98.50
46720;DHT22;32452;51.382;-0.002;2023-05-02T04:44:27;13.10;98.60
46720;DHT22;32452;51.382;-0.002;2023-05-02T04:47:13;13.00;98.60
46720;DHT22;32452;51.382;-0.002;2023-05-02T04:49:58;13.00;98.60
46720;DHT22;32452;51.382;-0.002;2023-05-02T04:52:44;13.00;98.60
46720;DHT22;32452;51.382;-0.002;2023-05-02T04:55:30;13.00;98.60
46720;DHT22;32452;51.382;-0.002;2023-05-02T04:58:16;13.00;98.70
46720;DHT22;32452;51.382;-0.002;2023-05-02T05:01:01;13.00;98.70
46720;DHT22;32452;51.382;-0.002;2023-05-02T05:03:47;13.00;98.70
46720;DHT22;32452;51.382;-0.002;2023-05-02T05:06:33;13.00;98.70
46720;DHT22;32452;51.382;-0.002;2023-05-02T05:09:19;13.00;98.60
46720;DHT22;32452;51.382;-0.002;2023-05-02T05:12:04;13.00;98.60
46720;DHT22;32452;51.382;-0.002;2023-05-02T05:14:50;13.00;98.50
46720;DHT22;32452;51.382;-0.002;2023-05-02T05:17:36;13.00;98.50
46720;DHT22;32452;51.382;-0.002;2023-05-02T05:20:22;13.00;98.40
46720;DHT22;32452;51.382;-0.002;2023-05-02T05:23:07;13.00;98.30
46720;DHT22;32452;51.382;-0.002;2023-05-02T05:25:53;13.00;98.50
46720;DHT22;32452;51.382;-0.002;2023-05-02T05:28:38;12.90;98.10
46720;DHT22;32452;51.382;-0.002;2023-05-02T05:31:24;12.90;98.00
46720;DHT22;32452;51.382;-0.002;2023-05-02T05:34:09;12.90;98.00
46720;DHT22;32452;51.382;-0.002;2023-05-02T05:36:55;12.80;98.00
46720;DHT22;32452;51.382;-0.002;2023-05-02T05:39:41;12.80;98.10
46720;DHT22;32452;51.382;-0.002;2023-05-02T05:42:27;12.80;98.00
46720;DHT22;32452;51.382;-0.002;2023-05-02T05:45:13;12.70;98.10
46720;DHT22;32452;51.382;-0.002;2023-05-02T05:47:59;12.80;98.30
46720;DHT22;32452;51.382;-0.002;2023-05-02T05:50:45;12.70;98.30
46720;DHT22;32452;51.382;-0.002;2023-05-02T05:53:31;12.70;98.20
46720;DHT22;32452;51.382;-0.002;2023-05-02T05:56:16;12.70;98.10
46720;DHT22;32452;51.382;-0.002;2023-05-02T05:59:02;12.70;98.20
46720;DHT22;32452;51.382;-0.002;2023-05-02T06:01:48;12.70;98.20
46720;DHT22;32452;51.382;-0.002;2023-05-02T06:04:33;12.70;98.30
46720;DHT22;32452;51.382;-0.002;2023-05-02T06:07:19;12.60;98.30
46720;DHT22;32452;51.382;-0.002;2023-05-02T06:10:05;12.60;98.30
46720;DHT22;32452;51.382;-0.002;2023-05-02T06:12:51;12.50;98.30
46720;DHT22;32452;51.382;-0.002;2023-05-02T06:15:37;12.50;98.50
46720;DHT22;32452;51.382;-0.002;2023-05-02T06:18:23;12.50;98.50
46720;DHT22;32452;51.382;-0.002;2023-05-02T06:21:08;12.50;98.40
46720;DHT22;32452;51.382;-0.002;2023-05-02T06:23:54;12.50;98.40
46720;DHT22;32452;51.382;-0.002;2023-05-02T06:26:40;12.40;98.60
46720;DHT22;32452;51.382;-0.002;2023-05-02T06:29:26;12.40;98.60
46720;DHT22;32452;51.382;-0.002;2023-05-02T06:32:11;12.40;98.60
46720;DHT22;32452;51.382;-0.002;2023-05-02T06:34:57;12.30;98.70
46720;DHT22;32452;51.382;-0.002;2023-05-02T06:37:42;12.30;98.70
46720;DHT22;32452;51.382;-0.002;2023-05-02T06:40:28;12.30;98.90
46720;DHT22;32452;51.382;-0.002;2023-05-02T06:43:13;12.20;98.90
46720;DHT22;32452;51.382;-0.002;2023-05-02T06:45:59;12.20;99.00
46720;DHT22;32452;51.382;-0.002;2023-05-02T06:48:45;12.20;99.20
46720;DHT22;32452;51.382;-0.002;2023-05-02T06:51:30;12.20;99.30
46720;DHT22;32452;51.382;-0.002;2023-05-02T06:54:16;12.20;99.30
46720;DHT22;32452;51.382;-0.002;2023-05-02T06:57:02;12.20;99.30
46720;DHT22;32452;51.382;-0.002;2023-05-02T06:59:48;12.20;99.30
46720;DHT22;32452;51.382;-0.002;2023-05-02T07:02:33;12.20;99.30
46720;DHT22;32452;51.382;-0.002;2023-05-02T07:05:19;12.30;99.30
46720;DHT22;32452;51.382;-0.002;2023-05-02T07:08:05;12.30;99.30
46720;DHT22;32452;51.382;-0.002;2023-05-02T07:10:51;12.20;99.40
46720;DHT22;32452;51.382;-0.002;2023-05-02T07:13:36;12.10;99.60
46720;DHT22;32452;51.382;-0.002;2023-05-02T07:16:22;12.00;99.70
46720;DHT22;32452;51.382;-0.002;2023-05-02T07:19:07;12.10;99.90
46720;DHT22;32452;51.382;-0.002;2023-05-02T07:21:53;12.10;99.90
46720;DHT22;32452;51.382;-0.002;2023-05-02T07:24:41;12.10;99.90
46720;DHT22;32452;51.382;-0.002;2023-05-02T07:27:27;12.10;99.90
46720;DHT22;32452;51.382;-0.002;2023-05-02T07:30:13;12.20;99.90
46720;DHT22;32452;51.382;-0.002;2023-05-02T07:32:59;12.20;99.90
46720;DHT22;32452;51.382;-0.002;2023-05-02T07:35:45;12.20;99.70
46720;DHT22;32452;51.382;-0.002;2023-05-02T07:38:31;12.20;99.60
46720;DHT22;32452;51.382;-0.002;2023-05-02T07:41:16;12.20;99.60
46720;DHT22;32452;51.382;-0.002;2023-05-02T07:44:02;12.10;99.60
46720;DHT22;32452;51.382;-0.002;2023-05-02T07:46:47;12.10;99.60
46720;DHT22;32452;51.382;-0.002;2023-05-02T07:49:34;12.10;99.60
46720;DHT22;32452;51.382;-0.002;2023-05-02T07:52:21;12.10;99.60
46720;DHT22;32452;51.382;-0.002;2023-05-02T07:55:07;12.10;99.60
46720;DHT22;32452;51.382;-0.002;2023-05-02T07:57:53;12.10;99.50
46720;DHT22;32452;51.382;-0.002;2023-05-02T08:00:38;12.20;99.40
46720;DHT22;32452;51.382;-0.002;2023-05-02T08:03:24;12.20;99.30
46720;DHT22;32452;51.382;-0.002;2023-05-02T08:06:10;12.20;99.30
46720;DHT22;32452;51.382;-0.002;2023-05-02T08:08:56;12.20;99.30
46720;DHT22;32452;51.382;-0.002;2023-05-02T08:11:41;12.30;99.20
46720;DHT22;32452;51.382;-0.002;2023-05-02T08:14:27;12.30;99.10
46720;DHT22;32452;51.382;-0.002;2023-05-02T08:17:13;12.30;99.00
46720;DHT22;32452;51.382;-0.002;2023-05-02T08:19:58;12.40;98.90
46720;DHT22;32452;51.382;-0.002;2023-05-02T08:22:47;12.40;98.70
46720;DHT22;32452;51.382;-0.002;2023-05-02T08:25:34;12.40;98.40
46720;DHT22;32452;51.382;-0.002;2023-05-02T08:28:20;12.40;98.40
46720;DHT22;32452;51.382;-0.002;2023-05-02T08:31:05;12.30;98.40
46720;DHT22;32452;51.382;-0.002;2023-05-02T08:33:51;12.30;98.40
46720;DHT22;32452;51.382;-0.002;2023-05-02T08:36:36;12.30;98.30
46720;DHT22;32452;51.382;-0.002;2023-05-02T08:39:22;12.40;98.20
46720;DHT22;32452;51.382;-0.002;2023-05-02T08:42:08;12.40;98.00
46720;DHT22;32452;51.382;-0.002;2023-05-02T08:44:54;12.40;97.80
46720;DHT22;32452;51.382;-0.002;2023-05-02T08:47:40;12.50;97.80
46720;DHT22;32452;51.382;-0.002;2023-05-02T08:50:27;12.50;97.50
46720;DHT22;32452;51.382;-0.002;2023-05-02T08:53:13;12.50;97.20
46720;DHT22;32452;51.382;-0.002;2023-05-02T08:56:00;12.60;97.10
46720;DHT22;32452;51.382;-0.002;2023-05-02T08:58:45;12.60;97.00
46720;DHT22;32452;51.382;-0.002;2023-05-02T09:01:32;12.70;96.80
46720;DHT22;32452;51.382;-0.002;2023-05-02T09:04:23;12.70;96.60
46720;DHT22;32452;51.382;-0.002;2023-05-02T09:07:09;12.70;96.40
46720;DHT22;32452;51.382;-0.002;2023-05-02T09:09:55;12.70;96.20
46720;DHT22;32452;51.382;-0.002;2023-05-02T09:12:42;12.80;96.20
46720;DHT22;32452;51.382;-0.002;2023-05-02T09:15:28;12.80;96.30
46720;DHT22;32452;51.382;-0.002;2023-05-02T09:18:19;12.80;95.80
46720;DHT22;32452;51.382;-0.002;2023-05-02T09:21:12;12.80;95.60
46720;DHT22;32452;51.382;-0.002;2023-05-02T09:24:02;12.90;95.40
46720;DHT22;32452;51.382;-0.002;2023-05-02T09:27:03;12.90;95.50
46720;DHT22;32452;51.382;-0.002;2023-05-02T09:29:48;12.90;95.00
46720;DHT22;32452;51.382;-0.002;2023-05-02T09:32:55;12.90;94.90
46720;DHT22;32452;51.382;-0.002;2023-05-02T09:35:52;13.00;94.70
46720;DHT22;32452;51.382;-0.002;2023-05-02T09:38:44;13.10;94.30
46720;DHT22;32452;51.382;-0.002;2023-05-02T09:41:39;13.10;94.00
46720;DHT22;32452;51.382;-0.002;2023-05-02T09:44:26;13.10;93.90
46720;DHT22;32452;51.382;-0.002;2023-05-02T09:47:26;13.20;93.70
46720;DHT22;32452;51.382;-0.002;2023-05-02T09:50:34;13.30;93.30
46720;DHT22;32452;51.382;-0.002;2023-05-02T09:53:20;13.40;92.80
46720;DHT22;32452;51.382;-0.002;2023-05-02T09:56:07;13.40;92.40
46720;DHT22;32452;51.382;-0.002;2023-05-02T09:59:15;13.50;91.90
46720;DHT22;32452;51.382;-0.002;2023-05-02T10:02:02;13.50;91.60
46720;DHT22;32452;51.382;-0.002;2023-05-02T10:04:48;13.60;91.30
46720;DHT22;32452;51.382;-0.002;2023-05-02T10:07:35;13.60;90.80
46720;DHT22;32452;51.382;-0.002;2023-05-02T10:10:21;13.70;90.60
46720;DHT22;32452;51.382;-0.002;2023-05-02T10:13:08;13.80;90.20
46720;DHT22;32452;51.382;-0.002;2023-05-02T10:16:01;13.80;90.20
46720;DHT22;32452;51.382;-0.002;2023-05-02T10:18:52;14.00;89.90
46720;DHT22;32452;51.382;-0.002;2023-05-02T10:21:42;14.00;88.80
46720;DHT22;32452;51.382;-0.002;2023-05-02T10:24:31;14.20;88.40
46720;DHT22;32452;51.382;-0.002;2023-05-02T10:27:17;14.30;87.40
46720;DHT22;32452;51.382;-0.002;2023-05-02T10:30:04;14.50;87.50
46720;DHT22;32452;51.382;-0.002;2023-05-02T10:32:51;14.70;85.90
46720;DHT22;32452;51.382;-0.002;2023-05-02T10:35:44;14.90;84.90
46720;DHT22;32452;51.382;-0.002;2023-05-02T10:38:32;15.30;85.20
46720;DHT22;32452;51.382;-0.002;2023-05-02T10:41:21;15.80;84.00
46720;DHT22;32452;51.382;-0.002;2023-05-02T10:44:08;16.10;79.50
46720;DHT22;32452;51.382;-0.002;2023-05-02T10:46:55;16.20;78.90
46720;DHT22;32452;51.382;-0.002;2023-05-02T10:49:59;16.30;77.90
46720;DHT22;32452;51.382;-0.002;2023-05-02T10:52:45;16.50;76.10
46720;DHT22;32452;51.382;-0.002;2023-05-02T10:55:32;16.40;75.20
46720;DHT22;32452;51.382;-0.002;2023-05-02T11:04:11;16.80;74.00
46720;DHT22;32452;51.382;-0.002;2023-05-02T11:09:45;16.90;72.30
46720;DHT22;32452;51.382;-0.002;2023-05-02T11:12:48;16.70;72.00
46720;DHT22;32452;51.382;-0.002;2023-05-02T11:18:26;16.40;72.50
46720;DHT22;32452;51.382;-0.002;2023-05-02T11:21:28;16.20;72.50
46720;DHT22;32452;51.382;-0.002;2023-05-02T11:24:39;16.10;71.80
46720;DHT22;32452;51.382;-0.002;2023-05-02T11:30:14;15.80;72.30
46720;DHT22;32452;51.382;-0.002;2023-05-02T11:33:27;15.70;72.40
46720;DHT22;32452;51.382;-0.002;2023-05-02T11:36:13;15.60;72.80
46720;DHT22;32452;51.382;-0.002;2023-05-02T11:39:00;15.60;72.90
46720;DHT22;32452;51.382;-0.002;2023-05-02T11:41:46;15.50;73.10
46720;DHT22;32452;51.382;-0.002;2023-05-02T11:44:57;15.60;73.10
46720;DHT22;32452;51.382;-0.002;2023-05-02T11:47:44;15.60;73.00
46720;DHT22;32452;51.382;-0.002;2023-05-02T11:50:39;15.70;72.70
46720;DHT22;32452;51.382;-0.002;2023-05-02T11:53:39;15.80;73.00
46720;DHT22;32452;51.382;-0.002;2023-05-02T11:56:27;15.90;72.00
46720;DHT22;32452;51.382;-0.002;2023-05-02T11:59:13;16.00;71.70
46720;DHT22;32452;51.382;-0.002;2023-05-02T12:01:58;16.00;71.40
46720;DHT22;32452;51.382;-0.002;2023-05-02T12:04:45;16.10;71.70
46720;DHT22;32452;51.382;-0.002;2023-05-02T12:07:40;16.30;71.90
46720;DHT22;32452;51.382;-0.002;2023-05-02T12:10:36;16.50;71.10
46720;DHT22;32452;51.382;-0.002;2023-05-02T12:13:24;16.50;69.50
46720;DHT22;32452;51.382;-0.002;2023-05-02T12:16:10;16.50;69.50
46720;DHT22;32452;51.382;-0.002;2023-05-02T12:18:56;16.50;69.20
46720;DHT22;32452;51.382;-0.002;2023-05-02T12:21:43;16.50;69.20
46720;DHT22;32452;51.382;-0.002;2023-05-02T12:24:29;16.50;68.80
46720;DHT22;32452;51.382;-0.002;2023-05-02T12:27:16;16.60;68.30
46720;DHT22;32452;51.382;-0.002;2023-05-02T12:30:01;16.60;68.00
46720;DHT22;32452;51.382;-0.002;2023-05-02T12:33:01;16.60;67.70
46720;DHT22;32452;51.382;-0.002;2023-05-02T12:35:47;16.60;67.30
46720;DHT22;32452;51.382;-0.002;2023-05-02T12:38:34;16.70;67.60
46720;DHT22;32452;51.382;-0.002;2023-05-02T12:41:38;16.70;66.70
46720;DHT22;32452;51.382;-0.002;2023-05-02T12:44:39;16.70;66.40
46720;DHT22;32452;51.382;-0.002;2023-05-02T12:47:25;16.70;66.30
46720;DHT22;32452;51.382;-0.002;2023-05-02T12:50:11;16.70;66.40
46720;DHT22;32452;51.382;-0.002;2023-05-02T12:52:56;16.60;66.30
46720;DHT22;32452;51.382;-0.002;2023-05-02T12:55:45;16.50;66.30
46720;DHT22;32452;51.382;-0.002;2023-05-02T12:58:43;16.60;66.30
46720;DHT22;32452;51.382;-0.002;2023-05-02T13:01:29;16.70;66.30
46720;DHT22;32452;51.382;-0.002;2023-05-02T13:04:15;16.70;66.30
46720;DHT22;32452;51.382;-0.002;2023-05-02T13:07:01;16.70;66.00
46720;DHT22;32452;51.382;-0.002;2023-05-02T13:09:47;16.60;66.00
46720;DHT22;32452;51.382;-0.002;2023-05-02T13:12:32;16.60;66.10
46720;DHT22;32452;51.382;-0.002;2023-05-02T13:15:21;16.50;65.70
46720;DHT22;32452;51.382;-0.002;2023-05-02T13:18:07;16.40;65.80
46720;DHT22;32452;51.382;-0.002;2023-05-02T13:20:53;16.30;66.00
46720;DHT22;32452;51.382;-0.002;2023-05-02T13:23:38;16.30;66.00
46720;DHT22;32452;51.382;-0.002;2023-05-02T13:26:25;16.20;66.60
46720;DHT22;32452;51.382;-0.002;2023-05-02T13:29:10;16.10;66.60
46720;DHT22;32452;51.382;-0.002;2023-05-02T13:31:56;16.10;66.70
46720;DHT22;32452;51.382;-0.002;2023-05-02T13:34:42;16.10;66.90
46720;DHT22;32452;51.382;-0.002;2023-05-02T13:37:28;16.00;67.00
46720;DHT22;32452;51.382;-0.002;2023-05-02T13:40:13;15.90;66.90
46720;DHT22;32452;51.382;-0.002;2023-05-02T13:42:59;15.90;67.20
46720;DHT22;32452;51.382;-0.002;2023-05-02T13:45:44;16.00;67.60
46720;DHT22;32452;51.382;-0.002;2023-05-02T13:48:33;16.20;67.30
46720;DHT22;32452;51.382;-0.002;2023-05-02T13:51:19;16.40;67.20
46720;DHT22;32452;51.382;-0.002;2023-05-02T13:54:04;16.50;66.70
46720;DHT22;32452;51.382;-0.002;2023-05-02T13:56:50;16.60;66.30
46720;DHT22;32452;51.382;-0.002;2023-05-02T13:59:35;16.50;66.20
46720;DHT22;32452;51.382;-0.002;2023-05-02T14:02:21;16.50;66.00
46720;DHT22;32452;51.382;-0.002;2023-05-02T14:05:07;16.50;66.10
46720;DHT22;32452;51.382;-0.002;2023-05-02T14:07:53;16.60;65.70
46720;DHT22;32452;51.382;-0.002;2023-05-02T14:10:38;16.70;65.00
46720;DHT22;32452;51.382;-0.002;2023-05-02T14:13:24;16.50;64.60
46720;DHT22;32452;51.382;-0.002;2023-05-02T14:16:10;16.30;64.70
46720;DHT22;32452;51.382;-0.002;2023-05-02T14:18:57;16.30;64.90
46720;DHT22;32452;51.382;-0.002;2023-05-02T14:21:44;16.30;65.10
46720;DHT22;32452;51.382;-0.002;2023-05-02T14:24:29;16.40;65.10
46720;DHT22;32452;51.382;-0.002;2023-05-02T14:27:22;16.50;64.80
46720;DHT22;32452;51.382;-0.002;2023-05-02T14:30:12;16.60;64.50
46720;DHT22;32452;51.382;-0.002;2023-05-02T14:32:58;16.70;64.60
46720;DHT22;32452;51.382;-0.002;2023-05-02T14:35:59;16.70;64.20
46720;DHT22;32452;51.382;-0.002;2023-05-02T14:38:57;16.80;64.40
46720;DHT22;32452;51.382;-0.002;2023-05-02T14:42:08;16.90;64.40
46720;DHT22;32452;51.382;-0.002;2023-05-02T14:44:59;16.90;63.60
46720;DHT22;32452;51.382;-0.002;2023-05-02T14:52:50;16.90;63.60
46720;DHT22;32452;51.382;-0.002;2023-05-02T14:55:36;16.70;63.90
46720;DHT22;32452;51.382;-0.002;2023-05-02T14:58:23;16.60;64.00
46720;DHT22;32452;51.382;-0.002;2023-05-02T15:01:19;16.60;64.50
46720;DHT22;32452;51.382;-0.002;2023-05-02T15:04:05;16.60;64.60
46720;DHT22;32452;51.382;-0.002;2023-05-02T15:06:55;16.70;64.40
46720;DHT22;32452;51.382;-0.002;2023-05-02T15:09:43;16.60;64.10
46720;DHT22;32452;51.382;-0.002;2023-05-02T15:12:28;16.50;64.20
46720;DHT22;32452;51.382;-0.002;2023-05-02T15:15:20;16.40;64.30
46720;DHT22;32452;51.382;-0.002;2023-05-02T15:18:12;16.30;64.40
46720;DHT22;32452;51.382;-0.002;2023-05-02T15:21:05;16.30;64.80
46720;DHT22;32452;51.382;-0.002;2023-05-02T15:23:51;16.20;65.00
46720;DHT22;32452;51.382;-0.002;2023-05-02T15:26:38;16.20;66.00
46720;DHT22;32452;51.382;-0.002;2023-05-02T15:29:25;16.30;65.10
46720;DHT22;32452;51.382;-0.002;2023-05-02T15:32:11;16.30;65.20
46720;DHT22;32452;51.382;-0.002;2023-05-02T15:34:57;16.40;65.00
46720;DHT22;32452;51.382;-0.002;2023-05-02T15:37:43;16.30;65.00
46720;DHT22;32452;51.382;-0.002;2023-05-02T15:40:28;16.30;65.10
46720;DHT22;32452;51.382;-0.002;2023-05-02T15:43:14;16.20;65.00
46720;DHT22;32452;51.382;-0.002;2023-05-02T15:45:59;16.20;65.20
46720;DHT22;32452;51.382;-0.002;2023-05-02T15:48:45;16.10;65.20
46720;DHT22;32452;51.382;-0.002;2023-05-02T15:51:31;16.10;65.20
46720;DHT22;32452;51.382;-0.002;2023-05-02T15:54:22;16.00;65.20
46720;DHT22;32452;51.382;-0.002;2023-05-02T15:57:11;16.00;65.10
46720;DHT22;32452;51.382;-0.002;2023-05-02T16:00:03;16.00;65.40
46720;DHT22;32452;51.382;-0.002;2023-05-02T16:02:51;16.00;65.40
46720;DHT22;32452;51.382;-0.002;2023-05-02T16:05:42;16.00;65.50
46720;DHT22;32452;51.382;-0.002;2023-05-02T16:08:31;16.00;65.40
46720;DHT22;32452;51.382;-0.002;2023-05-02T16:11:25;16.00;65.70
46720;DHT22;32452;51.382;-0.002;2023-05-02T16:14:11;16.00;65.50
46720;DHT22;32452;51.382;-0.002;2023-05-02T16:16:58;15.80;65.30
46720;DHT22;32452;51.382;-0.002;2023-05-02T16:19:44;15.70;65.60
46720;DHT22;32452;51.382;-0.002;2023-05-02T16:22:30;15.70;65.80
46720;DHT22;32452;51.382;-0.002;2023-05-02T16:25:16;15.70;65.80
46720;DHT22;32452;51.382;-0.002;2023-05-02T16:28:13;15.70;65.50
46720;DHT22;32452;51.382;-0.002;2023-05-02T16:31:05;15.70;65.30
46720;DHT22;32452;51.382;-0.002;2023-05-02T16:33:52;15.70;65.20
46720;DHT22;32452;51.382;-0.002;2023-05-02T16:36:37;15.60;65.20
46720;DHT22;32452;51.382;-0.002;2023-05-02T16:39:23;15.40;65.30
46720;DHT22;32452;51.382;-0.002;2023-05-02T16:42:08;15.30;65.50
46720;DHT22;32452;51.382;-0.002;2023-05-02T16:44:56;15.20;65.50
46720;DHT22;32452;51.382;-0.002;2023-05-02T16:47:43;15.20;65.80
46720;DHT22;32452;51.382;-0.002;2023-05-02T16:50:29;15.10;65.80
46720;DHT22;32452;51.382;-0.002;2023-05-02T16:53:14;15.00;65.90
46720;DHT22;32452;51.382;-0.002;2023-05-02T16:56:00;14.90;66.00
46720;DHT22;32452;51.382;-0.002;2023-05-02T16:58:46;14.90;65.90
46720;DHT22;32452;51.382;-0.002;2023-05-02T17:01:34;14.80;65.90
46720;DHT22;32452;51.382;-0.002;2023-05-02T17:04:20;14.70;66.10
46720;DHT22;32452;51.382;-0.002;2023-05-02T17:07:07;14.60;66.30
46720;DHT22;32452;51.382;-0.002;2023-05-02T17:09:53;14.60;66.20
46720;DHT22;32452;51.382;-0.002;2023-05-02T17:12:39;14.50;66.20
46720;DHT22;32452;51.382;-0.002;2023-05-02T17:15:39;14.40;66.20
46720;DHT22;32452;51.382;-0.002;2023-05-02T17:18:56;14.30;66.20
46720;DHT22;32452;51.382;-0.002;2023-05-02T17:21:42;14.30;66.20
46720;DHT22;32452;51.382;-0.002;2023-05-02T17:24:37;14.30;65.90
46720;DHT22;32452;51.382;-0.002;2023-05-02T17:27:31;14.30;65.50
46720;DHT22;32452;51.382;-0.002;2023-05-02T17:30:16;14.30;65.30
46720;DHT22;32452;51.382;-0.002;2023-05-02T17:33:02;14.30;65.00
46720;DHT22;32452;51.382;-0.002;2023-05-02T17:35:48;14.20;64.90
46720;DHT22;32452;51.382;-0.002;2023-05-02T17:38:33;14.10;64.80
46720;DHT22;32452;51.382;-0.002;2023-05-02T17:41:19;14.10;63.80
46720;DHT22;32452;51.382;-0.002;2023-05-02T17:44:05;14.00;64.00
46720;DHT22;32452;51.382;-0.002;2023-05-02T17:46:51;14.00;64.30
46720;DHT22;32452;51.382;-0.002;2023-05-02T17:49:37;13.90;64.40
46720;DHT22;32452;51.382;-0.002;2023-05-02T17:52:23;13.80;64.30
46720;DHT22;32452;51.382;-0.002;2023-05-02T17:55:08;13.80;63.90